Time;durP1;ratioP1;P1;durP2;ratioP2;P2;SDS_P1;SDS_P2;PMS_P1;PMS_P2;Temp;Humidity;BMP_temperature;BMP_pressure;BME280_temperature;BME280_humidity;BME280_pressure;Samples;Min_cycle;Max_cycle;Signal;HPM_P1;HPM_P2
2022/01/19 04:33:27;;;;;;;18.00;11.87;;;;;;;4.45;59.03;100063.47;7030362;22;20226;-80
2022/01/19 04:37:22;;;;;;;16.43;11.90;;;;;;;4.27;58.51;100057.09;6976659;28;20260;-78
2022/01/19 04:48:17;;;;;;;16.87;10.73;;;;;;;4.47;58.18;100049.00;7005720;28;20671;-80
2022/01/19 05:03:02;;;;;;;17.97;11.90;;;;;;;4.09;57.77;100016.00;7005194;28;20674;-80
2022/01/19 05:06:25;;;;;;;14.43;10.70;;;;;;;4.20;57.96;100050.59;7004534;28;20276;-80
2022/01/19 05:10:00;;;;;;;19.70;11.63;;;;;;;4.34;58.44;100043.06;7005194;28;20201;-80
2022/01/19 05:13:25;;;;;;;18.20;11.77;;;;;;;4.55;57.61;100030.47;7005618;28;20761;-77
2022/01/19 05:16:47;;;;;;;18.20;11.67;;;;;;;4.59;57.25;100023.88;6987300;28;20233;-80
2022/01/19 05:20:13;;;;;;;16.03;10.53;;;;;;;4.67;56.50;100007.16;6993186;28;20221;-80
2022/01/19 05:23:35;;;;;;;17.63;11.30;;;;;;;4.14;56.77;100024.47;6985334;28;20283;-79
2022/01/19 05:26:58;;;;;;;18.27;12.27;;;;;;;3.46;59.19;100014.44;6981785;28;20250;-79
2022/01/19 05:30:19;;;;;;;18.00;11.77;;;;;;;4.22;58.24;100001.44;7003985;28;20209;-81
2022/01/19 05:33:41;;;;;;;19.93;12.00;;;;;;;4.37;57.66;100016.09;6996863;28;20254;-80
2022/01/19 05:37:03;;;;;;;17.93;12.20;;;;;;;4.40;57.13;99975.78;7002929;28;20190;-81
2022/01/19 05:40:25;;;;;;;16.20;10.93;;;;;;;4.72;57.57;99999.59;7004327;28;20189;-81
2022/01/19 05:43:48;;;;;;;12.23;9.67;;;;;;;4.63;57.02;99971.88;7003517;28;20201;-80
2022/01/19 05:47:09;;;;;;;17.47;10.80;;;;;;;4.90;56.99;99972.00;6992189;28;20226;-80
2022/01/19 05:50:31;;;;;;;14.93;10.43;;;;;;;4.92;56.72;99969.19;7003630;28;20279;-80
2022/01/19 05:53:52;;;;;;;14.77;10.40;;;;;;;4.99;56.30;99964.97;7002786;28;20241;-80
2022/01/19 05:57:14;;;;;;;19.37;11.77;;;;;;;4.97;56.58;99980.31;7003648;28;20206;-80
2022/01/19 06:00:37;;;;;;;14.70;11.60;;;;;;;5.06;56.50;99966.94;7000533;28;20249;-79
2022/01/19 06:03:59;;;;;;;19.33;10.83;;;;;;;5.12;55.88;99971.72;6974133;28;20202;-80
2022/01/19 06:07:26;;;;;;;16.27;10.70;;;;;;;5.01;55.32;99965.69;6975035;28;20271;-80
2022/01/19 06:10:48;;;;;;;17.60;11.40;;;;;;;4.68;56.55;99942.06;6975270;28;20781;-81
2022/01/19 06:14:09;;;;;;;18.50;10.50;;;;;;;4.54;55.89;99978.03;6977132;28;20210;-81
2022/01/19 06:17:32;;;;;;;18.00;11.20;;;;;;;4.35;56.50;99963.81;6976558;28;20213;-81
2022/01/19 06:20:54;;;;;;;20.53;11.80;;;;;;;4.24;56.98;99964.78;6976227;28;20708;-82
2022/01/19 06:24:15;;;;;;;18.20;12.33;;;;;;;4.46;56.60;99966.34;6975930;28;20214;-81
2022/01/19 06:27:37;;;;;;;17.93;11.33;;;;;;;4.44;56.82;99968.34;6976342;28;20220;-81
2022/01/19 06:30:58;;;;;;;18.23;11.57;;;;;;;4.29;56.72;99957.22;6974456;28;20238;-81
2022/01/19 06:34:21;;;;;;;16.27;11.23;;;;;;;4.46;56.51;99956.53;6976238;28;20211;-82
2022/01/19 06:37:43;;;;;;;17.63;11.80;;;;;;;4.20;56.90;99963.34;6975839;28;20208;-81
2022/01/19 06:41:05;;;;;;;17.33;10.87;;;;;;;4.28;57.16;99976.88;6978554;28;20242;-81
2022/01/19 06:44:26;;;;;;;20.37;12.30;;;;;;;4.49;57.26;99960.75;6975376;28;20210;-81
2022/01/19 06:47:48;;;;;;;22.60;13.90;;;;;;;3.74;57.69;99898.22;6976107;28;20732;-81
2022/01/19 06:51:11;;;;;;;20.33;12.63;;;;;;;4.08;57.99;99968.97;6978298;28;20225;-82
2022/01/19 06:54:32;;;;;;;21.63;14.73;;;;;;;3.80;59.43;99972.38;6979684;28;20553;-81
2022/01/19 06:57:54;;;;;;;20.50;14.97;;;;;;;3.84;60.09;99955.94;7006089;28;20220;-82
2022/01/19 07:01:16;;;;;;;29.40;16.80;;;;;;;4.16;59.40;99937.09;7006287;28;20221;-82
2022/01/19 07:04:39;;;;;;;22.07;15.37;;;;;;;4.47;57.94;99920.84;7004808;28;20201;-81
2022/01/19 07:08:02;;;;;;;18.93;13.33;;;;;;;4.39;58.04;99960.75;7006916;28;20316;-81
2022/01/19 07:11:25;;;;;;;20.53;13.17;;;;;;;4.68;58.42;99960.75;6981864;28;20231;-82
2022/01/19 07:14:46;;;;;;;20.30;13.00;;;;;;;4.45;57.81;99938.84;6977745;28;20661;-81
2022/01/19 07:18:08;;;;;;;18.00;12.07;;;;;;;4.47;58.41;99952.03;6978853;28;20207;-81
2022/01/19 07:21:30;;;;;;;24.03;13.03;;;;;;;4.61;58.41;99940.94;6997916;28;20233;-80
2022/01/19 07:24:53;;;;;;;21.50;13.30;;;;;;;4.73;58.50;99937.16;7011936;28;20203;-79
2022/01/19 07:28:14;;;;;;;23.67;14.13;;;;;;;4.39;59.01;99896.66;7001061;28;20226;-80
2022/01/19 07:31:36;;;;;;;28.00;15.30;;;;;;;5.01;58.18;99945.13;6991923;28;20574;-81
2022/01/19 07:34:57;;;;;;;23.07;13.63;;;;;;;4.97;58.17;99943.75;6995770;28;20209;-81
2022/01/19 07:38:19;;;;;;;17.47;12.93;;;;;;;5.18;57.23;99935.56;6998720;28;20683;-82
2022/01/19 07:41:42;;;;;;;18.77;11.47;;;;;;;4.96;56.61;99909.97;6985120;28;20226;-82
2022/01/19 07:45:06;;;;;;;18.57;12.80;;;;;;;4.95;57.41;99947.56;6985384;28;20229;-81
2022/01/19 07:48:27;;;;;;;25.73;13.20;;;;;;;4.54;57.34;99883.75;6985124;28;20276;-81
2022/01/19 07:51:49;;;;;;;20.10;12.87;;;;;;;4.69;57.02;99868.97;6985600;28;20695;-82
2022/01/19 07:55:11;;;;;;;22.83;13.63;;;;;;;5.22;56.70;99928.94;6987769;28;20204;-81
2022/01/19 07:58:34;;;;;;;17.00;12.50;;;;;;;5.10;56.50;99892.66;6987405;28;20683;-81
2022/01/19 08:01:56;;;;;;;19.13;13.27;;;;;;;4.83;57.20;99917.44;6996593;28;20239;-81
2022/01/19 08:05:18;;;;;;;22.83;14.23;;;;;;;4.59;57.96;99876.13;6994874;28;20205;-81
2022/01/19 08:08:39;;;;;;;18.00;13.00;;;;;;;4.90;57.52;99888.34;6996143;28;20226;-81
2022/01/19 08:12:01;;;;;;;22.13;14.63;;;;;;;5.12;56.56;99872.00;6989097;28;20231;-81
2022/01/19 08:15:24;;;;;;;20.50;14.17;;;;;;;5.43;56.82;99910.88;6985216;28;20201;-81
2022/01/19 08:18:46;;;;;;;20.93;14.23;;;;;;;5.43;56.43;99908.19;6985959;28;20202;-81
2022/01/19 08:22:08;;;;;;;22.03;14.37;;;;;;;5.28;57.71;99898.94;6985625;28;20227;-80
2022/01/19 08:25:29;;;;;;;20.30;14.37;;;;;;;5.02;57.54;99842.59;6987725;28;20278;-81
2022/01/19 08:28:51;;;;;;;25.73;15.70;;;;;;;6.03;56.63;99894.28;6989050;28;20220;-81
2022/01/19 08:32:14;;;;;;;18.60;13.60;;;;;;;6.30;55.14;99900.44;6982523;28;20236;-82
2022/01/19 08:35:36;;;;;;;20.37;12.93;;;;;;;6.32;55.24;99885.03;6982691;28;20192;-81
2022/01/19 08:38:57;;;;;;;17.83;12.60;;;;;;;6.42;54.68;99887.69;6984984;28;20199;-82
2022/01/19 08:42:19;;;;;;;19.60;13.83;;;;;;;6.39;54.96;99890.66;6984487;28;20228;-81
2022/01/19 08:45:41;;;;;;;20.37;14.40;;;;;;;6.81;55.00;99887.19;6984005;28;20213;-81
2022/01/19 08:49:04;;;;;;;21.83;14.13;;;;;;;10.06;47.34;99867.47;6984180;28;20229;-81
2022/01/19 08:52:26;;;;;;;16.87;12.80;;;;;;;10.73;43.73;99849.66;6983038;28;20223;-82
2022/01/19 08:55:48;;;;;;;24.27;15.83;;;;;;;10.66;43.48;99868.44;6982857;28;20550;-81
2022/01/19 08:59:09;;;;;;;19.20;14.60;;;;;;;11.63;41.55;99881.91;6983265;28;20268;-82
2022/01/19 09:02:31;;;;;;;18.40;12.73;;;;;;;11.74;40.65;99874.16;6983217;28;20222;-81
2022/01/19 09:05:54;;;;;;;18.10;13.50;;;;;;;11.32;41.67;99862.28;6982498;28;20210;-82
2022/01/19 09:09:16;;;;;;;19.60;13.53;;;;;;;10.35;43.85;99882.97;6982690;28;20234;-81
2022/01/19 09:12:38;;;;;;;20.83;16.13;;;;;;;9.45;45.87;99888.03;6982675;28;20224;-81
2022/01/19 09:16:00;;;;;;;15.77;13.60;;;;;;;8.66;48.12;99887.06;6982381;28;20665;-81
2022/01/19 09:19:21;;;;;;;20.17;13.20;;;;;;;8.01;48.92;99874.47;6982705;28;20207;-81
2022/01/19 09:22:45;;;;;;;18.27;12.73;;;;;;;7.67;50.33;99875.50;6982127;28;20695;-81
2022/01/19 09:26:06;;;;;;;20.03;13.63;;;;;;;7.55;50.82;99887.53;6981143;28;20207;-81
2022/01/19 09:29:28;;;;;;;14.87;11.90;;;;;;;8.10;49.58;99872.66;6992230;28;20219;-82
2022/01/19 09:32:56;;;;;;;18.00;11.60;;;;;;;8.23;49.09;99857.78;6997914;28;20590;-82
2022/01/19 09:36:31;;;;;;;16.40;12.40;;;;;;;7.88;49.94;99851.75;7008103;28;20225;-81
2022/01/19 09:39:54;;;;;;;15.17;11.00;;;;;;;8.58;48.75;99860.19;6988822;28;20201;-81
2022/01/19 09:43:21;;;;;;;12.00;10.33;;;;;;;8.15;49.04;99873.84;6992843;28;20221;-81
2022/01/19 09:46:45;;;;;;;14.27;11.23;;;;;;;8.14;49.92;99861.41;6985670;28;20334;-82
2022/01/19 09:50:07;;;;;;;14.43;11.10;;;;;;;9.02;48.45;99858.00;7000263;28;20212;-80
2022/01/19 09:53:29;;;;;;;14.03;11.20;;;;;;;9.15;47.41;99856.47;6994200;28;20248;-81
2022/01/19 09:56:52;;;;;;;13.57;10.83;;;;;;;8.81;46.73;99783.22;6987663;28;20257;-82
2022/01/19 10:00:14;;;;;;;13.73;10.73;;;;;;;8.91;47.26;99855.66;6993102;28;20676;-83
2022/01/19 10:03:36;;;;;;;15.60;11.83;;;;;;;9.83;46.29;99831.53;6994147;28;20205;-79
2022/01/19 10:07:15;;;;;;;15.37;10.43;;;;;;;10.17;44.23;99809.63;6996106;28;20253;-78
2022/01/19 10:10:37;;;;;;;15.87;10.93;;;;;;;9.74;44.98;99802.13;6992403;28;20231;-83
2022/01/19 10:17:40;;;;;;;14.10;11.30;;;;;;;10.54;43.36;99817.78;7007924;28;20190;-85
2022/01/19 10:21:06;;;;;;;14.87;10.93;;;;;;;11.09;42.51;99778.66;6996249;28;20222;-82
2022/01/19 10:24:39;;;;;;;12.63;10.33;;;;;;;10.87;42.69;99784.13;6998462;28;20196;-81
2022/01/19 10:28:01;;;;;;;13.00;10.20;;;;;;;10.67;43.39;99783.81;6994127;28;20222;-82
2022/01/19 10:31:25;;;;;;;14.10;10.20;;;;;;;10.58;44.46;99762.50;6997183;28;20316;-79
2022/01/19 10:34:46;;;;;;;12.90;9.97;;;;;;;11.24;42.46;99766.03;6992157;28;20197;-83
2022/01/19 10:38:14;;;;;;;17.00;15.20;;;;;;;11.24;41.75;99763.34;6987875;28;20206;-82
2022/01/19 10:41:35;;;;;;;11.10;9.90;;;;;;;9.96;44.36;99742.03;6994862;28;20227;-83
2022/01/19 10:44:59;;;;;;;14.10;9.03;;;;;;;11.57;42.14;99721.38;7011482;22;20719;-82
2022/01/19 10:48:33;;;;;;;12.53;10.27;;;;;;;10.95;42.84;99720.13;6978389;28;20222;-82
2022/01/19 10:51:58;;;;;;;11.77;9.30;;;;;;;10.50;42.97;99722.94;6977602;28;20201;-87
2022/01/19 10:55:28;;;;;;;12.83;9.83;;;;;;;10.33;43.93;99726.78;6956693;28;20202;-82
2022/01/19 11:04:03;;;;;;;10.87;9.03;;;;;;;10.78;42.78;99670.06;6898147;28;20632;-84
2022/01/19 11:11:47;;;;;;;13.43;9.13;;;;;;;12.22;40.00;99649.13;6836153;28;20271;-83
2022/01/19 11:15:13;;;;;;;9.70;8.80;;;;;;;11.11;40.93;99662.44;6874827;28;20244;-83
2022/01/19 11:22:50;;;;;;;14.20;9.03;;;;;;;11.45;40.40;99686.97;6861698;28;20264;-84
2022/01/19 11:26:15;;;;;;;13.37;8.93;;;;;;;9.93;44.01;99686.66;6873898;28;20782;-85
2022/01/19 11:29:38;;;;;;;14.63;10.37;;;;;;;10.03;44.25;99649.56;6866693;28;20227;-83
2022/01/19 11:33:23;;;;;;;13.70;9.83;;;;;;;10.81;43.13;99677.78;6862868;28;20204;-83
2022/01/19 11:36:45;;;;;;;13.83;9.20;;;;;;;10.80;43.27;99661.81;6871975;28;20700;-84
2022/01/19 11:40:13;;;;;;;11.17;9.80;;;;;;;10.81;43.25;99661.59;6868379;28;20694;-81
2022/01/19 11:43:37;;;;;;;10.63;9.53;;;;;;;11.12;42.81;99664.97;6861874;28;20197;-81
2022/01/19 11:47:00;;;;;;;12.77;9.33;;;;;;;10.18;44.51;99657.69;6862310;28;20197;-84
2022/01/19 11:50:22;;;;;;;10.77;9.00;;;;;;;10.49;43.51;99663.81;6863333;28;20353;-82
2022/01/19 11:54:00;;;;;;;11.67;9.90;;;;;;;10.25;43.97;99646.03;6862200;28;20283;-84
2022/01/19 11:57:27;;;;;;;11.77;8.77;;;;;;;10.26;43.78;99646.84;6862273;28;20232;-84
2022/01/19 12:00:50;;;;;;;11.00;8.97;;;;;;;10.73;43.71;99639.28;6862958;28;20321;-83
2022/01/19 12:04:14;;;;;;;11.23;8.83;;;;;;;11.68;42.03;99642.59;6862769;28;20225;-83
2022/01/19 12:07:37;;;;;;;12.33;9.43;;;;;;;10.68;42.75;99625.53;6865669;28;20264;-81
2022/01/19 12:11:11;;;;;;;14.90;9.30;;;;;;;11.57;41.72;99634.97;6858625;28;20216;-82
2022/01/19 12:14:39;;;;;;;18.97;10.40;;;;;;;11.35;41.49;99606.28;6867666;28;20236;-82
2022/01/19 12:18:09;;;;;;;16.73;9.83;;;;;;;11.02;43.48;99631.16;6866883;28;20577;-80
2022/01/19 12:21:41;;;;;;;14.27;10.50;;;;;;;10.84;43.36;99612.69;6840096;28;20326;-81
2022/01/19 12:25:06;;;;;;;14.40;10.10;;;;;;;10.87;44.41;99633.88;6867096;28;20221;-81
2022/01/19 12:28:47;;;;;;;14.13;11.20;;;;;;;10.69;44.51;99625.31;6868145;28;20220;-82
2022/01/19 12:32:34;;;;;;;16.47;10.77;;;;;;;10.62;44.86;99629.78;6868401;28;20200;-82
2022/01/19 12:35:56;;;;;;;16.70;12.43;;;;;;;10.19;46.21;99627.03;6867428;28;20229;-82
2022/01/19 12:39:50;;;;;;;15.53;11.80;;;;;;;9.96;46.86;99636.97;6868108;28;20224;-82
2022/01/19 12:43:28;;;;;;;13.93;11.23;;;;;;;10.51;45.24;99621.34;6867864;28;20200;-81
2022/01/19 12:46:51;;;;;;;17.30;11.80;;;;;;;10.89;44.03;99607.56;6826712;28;20233;-82
2022/01/19 12:50:41;;;;;;;16.10;11.00;;;;;;;11.07;43.75;99620.66;6848130;28;20594;-80
2022/01/19 12:54:02;;;;;;;14.23;11.47;;;;;;;11.30;43.28;99619.50;6827162;28;20233;-82
2022/01/19 12:57:24;;;;;;;11.43;10.03;;;;;;;11.26;42.83;99620.03;6842292;28;20235;-84
2022/01/19 13:00:48;;;;;;;12.97;9.63;;;;;;;10.59;43.24;99540.34;6843353;28;20692;-83
2022/01/19 13:04:09;;;;;;;13.20;9.43;;;;;;;10.85;42.97;99613.50;6841479;28;20233;-84
2022/01/19 13:07:34;;;;;;;20.70;13.07;;;;;;;11.28;42.97;99615.31;6842796;28;20213;-84
2022/01/19 13:11:04;;;;;;;35.47;17.27;;;;;;;10.60;44.00;99583.31;6842208;28;20256;-84
2022/01/19 13:14:27;;;;;;;22.07;15.20;;;;;;;10.64;44.08;99586.47;6841744;29;20240;-84
2022/01/19 13:17:52;;;;;;;11.83;8.80;;;;;;;10.39;44.30;99593.97;6833442;28;20210;-82
2022/01/19 13:21:16;;;;;;;14.47;10.07;;;;;;;10.66;43.75;99549.34;6843637;28;20205;-83
2022/01/19 13:24:39;;;;;;;12.43;9.03;;;;;;;10.36;44.38;99580.88;6853727;28;20582;-82
2022/01/19 13:28:02;;;;;;;14.83;10.20;;;;;;;10.69;44.12;99578.66;6871871;28;20236;-83
2022/01/19 13:31:24;;;;;;;14.63;9.90;;;;;;;10.81;43.92;99571.75;6884964;28;20209;-81
2022/01/19 13:34:54;;;;;;;11.73;9.27;;;;;;;11.22;43.59;99578.28;6859841;28;20257;-83
2022/01/19 13:38:16;;;;;;;14.77;10.40;;;;;;;11.12;43.70;99575.03;6867348;28;20208;-83
2022/01/19 13:41:43;;;;;;;11.57;8.93;;;;;;;11.29;43.32;99568.41;6852027;28;20214;-82
2022/01/19 13:45:14;;;;;;;17.17;10.40;;;;;;;11.27;43.93;99559.66;6841202;28;20226;-82
2022/01/19 13:48:35;;;;;;;12.90;9.23;;;;;;;11.01;44.51;99560.19;6841141;28;20232;-82
2022/01/19 13:51:57;;;;;;;11.23;8.97;;;;;;;11.24;44.34;99546.53;6841576;28;20214;-83
2022/01/19 13:55:20;;;;;;;11.80;9.20;;;;;;;11.25;43.39;99532.84;6826854;28;20230;-82
2022/01/19 13:58:46;;;;;;;14.93;9.70;;;;;;;10.96;43.98;99559.06;6829803;28;20212;-83
2022/01/19 14:02:17;;;;;;;13.10;9.17;;;;;;;11.27;43.41;99540.75;6845975;28;20221;-83
2022/01/19 14:05:44;;;;;;;13.50;9.67;;;;;;;11.14;43.63;99556.78;6840131;29;20819;-83
2022/01/19 14:09:09;;;;;;;13.20;9.40;;;;;;;11.26;43.55;99563.34;6840768;28;20218;-81
2022/01/19 14:12:31;;;;;;;12.63;9.53;;;;;;;10.91;44.42;99537.22;6839411;28;20217;-84
2022/01/19 14:15:55;;;;;;;11.30;8.67;;;;;;;11.03;44.24;99562.72;6838607;29;20717;-83
2022/01/19 14:19:20;;;;;;;10.90;9.20;;;;;;;10.99;43.97;99550.59;6839778;29;20213;-83
2022/01/19 14:22:42;;;;;;;11.57;9.40;;;;;;;11.21;43.03;99522.63;6840221;29;20753;-84
2022/01/19 14:26:08;;;;;;;14.77;8.10;;;;;;;11.69;42.62;99549.72;6838434;29;20226;-83
2022/01/19 14:29:30;;;;;;;11.23;9.03;;;;;;;11.79;42.35;99533.16;6838366;28;20236;-84
2022/01/19 14:32:54;;;;;;;12.00;8.87;;;;;;;11.41;43.25;99532.59;6839188;29;20214;-84
2022/01/19 14:36:22;;;;;;;11.57;8.30;;;;;;;11.44;42.53;99471.94;6838886;28;20236;-84
2022/01/19 14:39:52;;;;;;;10.20;8.00;;;;;;;10.85;43.96;99484.00;6839503;28;20272;-84
2022/01/19 14:43:29;;;;;;;10.60;7.83;;;;;;;11.54;42.98;99508.41;6838444;28;20209;-83
2022/01/19 14:47:05;;;;;;;12.33;7.77;;;;;;;11.77;43.11;99513.63;6834982;28;20653;-87
2022/01/19 14:50:35;;;;;;;14.77;9.20;;;;;;;11.72;42.88;99503.41;6836255;29;20325;-83
2022/01/19 14:53:59;;;;;;;14.43;8.20;;;;;;;11.87;42.51;99501.44;6837218;28;20805;-83
2022/01/19 14:57:20;;;;;;;9.37;7.40;;;;;;;11.91;42.18;99493.78;6838171;28;20205;-82
2022/01/19 15:00:43;;;;;;;12.93;7.63;;;;;;;11.59;43.22;99486.25;6839140;29;20302;-81
2022/01/19 15:04:06;;;;;;;13.27;8.53;;;;;;;11.13;44.36;99477.72;6837302;28;20231;-86
2022/01/19 15:07:29;;;;;;;9.70;8.17;;;;;;;10.88;44.37;99492.59;6839050;29;20221;-84
2022/01/19 15:10:51;;;;;;;9.47;7.47;;;;;;;10.57;44.61;99450.72;6840930;29;20237;-83
2022/01/19 15:14:15;;;;;;;7.83;6.83;;;;;;;10.36;44.28;99451.50;6838893;29;20232;-84
2022/01/19 15:17:37;;;;;;;10.30;7.23;;;;;;;10.43;44.75;99481.22;6839913;29;20869;-84
2022/01/19 15:20:58;;;;;;;7.10;6.20;;;;;;;9.84;44.44;99460.66;6839712;29;20279;-80
2022/01/19 15:24:22;;;;;;;10.93;7.43;;;;;;;10.15;44.40;99491.84;6840952;29;20251;-84
2022/01/19 15:27:45;;;;;;;10.53;7.10;;;;;;;10.01;44.93;99462.16;6827171;28;20237;-84
2022/01/19 15:31:11;;;;;;;9.60;7.23;;;;;;;10.36;44.61;99491.09;6819569;29;20789;-82
2022/01/19 15:34:33;;;;;;;10.10;8.17;;;;;;;10.25;44.75;99488.84;6828623;29;20239;-84
2022/01/19 15:37:55;;;;;;;10.20;7.40;;;;;;;10.38;44.27;99497.97;6817982;29;20212;-82
2022/01/19 15:41:18;;;;;;;8.93;6.90;;;;;;;10.04;44.46;99456.44;6818031;29;20219;-82
2022/01/19 15:44:40;;;;;;;8.63;6.87;;;;;;;10.54;43.40;99505.88;6821754;29;20237;-83
2022/01/19 15:48:01;;;;;;;10.13;7.27;;;;;;;10.10;44.65;99504.19;6839116;29;20221;-82
2022/01/19 15:51:23;;;;;;;18.27;11.57;;;;;;;9.97;44.92;99480.56;6835790;29;20245;-83
2022/01/19 15:54:46;;;;;;;11.47;7.90;;;;;;;10.37;43.77;99490.91;6831284;29;20229;-82
2022/01/19 15:58:10;;;;;;;9.17;7.00;;;;;;;10.24;44.39;99468.31;6840150;28;20210;-87
2022/01/19 16:01:32;;;;;;;9.07;7.27;;;;;;;10.00;44.68;99458.66;6844534;28;20227;-84
2022/01/19 16:04:53;;;;;;;10.90;7.40;;;;;;;10.09;44.97;99495.28;6845368;29;20222;-82
2022/01/19 16:08:15;;;;;;;11.23;8.17;;;;;;;9.98;45.51;99492.19;6846498;29;20211;-83
2022/01/19 16:11:37;;;;;;;9.00;6.83;;;;;;;9.78;45.67;99478.41;6843726;28;20306;-83
2022/01/19 16:15:00;;;;;;;9.93;7.60;;;;;;;9.32;46.67;99490.25;6846751;28;20696;-83
2022/01/19 16:18:22;;;;;;;10.17;7.70;;;;;;;8.93;47.78;99501.31;6841099;28;20198;-82
2022/01/19 16:21:44;;;;;;;10.43;8.17;;;;;;;9.53;46.41;99431.22;6843059;29;20201;-82
2022/01/19 16:28:48;;;;;;;10.17;7.87;;;;;;;9.42;46.51;99490.88;6843405;29;20231;-82
2022/01/19 16:32:11;;;;;;;10.13;8.13;;;;;;;9.32;47.42;99492.97;6845306;29;20232;-83
2022/01/19 16:35:32;;;;;;;12.13;9.43;;;;;;;9.55;46.55;99472.22;6846774;28;20693;-82
2022/01/19 16:38:54;;;;;;;11.93;8.80;;;;;;;9.73;46.82;99485.34;6858378;29;20221;-84
2022/01/19 16:42:18;;;;;;;10.90;8.43;;;;;;;9.97;46.09;99477.00;6856817;28;20210;-83
2022/01/19 16:45:40;;;;;;;10.67;7.70;;;;;;;9.29;47.35;99490.66;6847403;29;20235;-85
2022/01/19 16:49:05;;;;;;;10.47;7.40;;;;;;;9.07;48.06;99463.72;6842394;28;20622;-85
2022/01/19 16:52:27;;;;;;;11.03;8.23;;;;;;;8.98;47.81;99464.81;6843658;28;20233;-86
2022/01/19 16:55:52;;;;;;;11.43;8.20;;;;;;;9.29;47.97;99495.19;6842539;28;20229;-86
2022/01/19 16:59:15;;;;;;;11.00;8.53;;;;;;;9.65;47.58;99480.03;6844588;28;20220;-86
2022/01/19 17:02:36;;;;;;;13.83;8.67;;;;;;;9.83;46.87;99480.53;6845037;28;20228;-83
2022/01/19 17:06:00;;;;;;;11.53;8.30;;;;;;;9.01;48.36;99475.19;6857792;28;20236;-82
2022/01/19 17:09:22;;;;;;;12.83;8.43;;;;;;;9.48;47.38;99476.69;6854910;28;20593;-84
2022/01/19 17:12:43;;;;;;;11.87;8.27;;;;;;;9.18;48.30;99485.69;6853630;28;20204;-85
2022/01/19 17:16:14;;;;;;;11.43;8.47;;;;;;;9.91;46.61;99489.38;6845481;28;20232;-84
2022/01/19 17:19:39;;;;;;;12.03;9.00;;;;;;;9.46;46.79;99430.25;6847090;28;20267;-86
2022/01/19 17:23:03;;;;;;;13.13;9.93;;;;;;;9.20;47.62;99475.56;6847075;28;20327;-87
2022/01/19 17:26:24;;;;;;;16.00;11.50;;;;;;;9.27;48.61;99406.56;6845863;28;20276;-85
2022/01/19 17:29:46;;;;;;;12.07;9.23;;;;;;;9.85;47.58;99473.09;6845598;28;20229;-86
2022/01/19 17:33:09;;;;;;;14.70;10.23;;;;;;;9.20;47.75;99434.34;6848617;28;20210;-87
2022/01/19 17:36:34;;;;;;;12.60;9.50;;;;;;;9.54;47.07;99423.97;6844875;28;20603;-88
2022/01/19 17:39:57;;;;;;;19.53;11.43;;;;;;;9.35;47.29;99433.41;6843657;28;20221;-88
2022/01/19 17:43:20;;;;;;;12.20;8.73;;;;;;;9.14;48.35;99470.91;6844324;28;20236;-83
2022/01/19 17:46:47;;;;;;;13.53;10.20;;;;;;;9.30;48.19;99486.06;6844901;28;20213;-85
2022/01/19 17:53:45;;;;;;;11.53;9.07;;;;;;;8.89;48.22;99408.59;6843071;28;20232;-85
2022/01/19 17:57:09;;;;;;;11.30;8.83;;;;;;;9.32;47.96;99473.28;6846281;28;20218;-82
2022/01/19 18:00:31;;;;;;;13.93;10.13;;;;;;;9.43;48.14;99486.31;6853748;28;20219;-83
2022/01/19 18:03:52;;;;;;;12.10;9.03;;;;;;;9.02;47.83;99414.19;6844096;28;20263;-83
2022/01/19 18:07:15;;;;;;;11.53;8.70;;;;;;;9.38;48.18;99488.69;6843274;28;20217;-85
2022/01/19 18:10:36;;;;;;;13.03;9.50;;;;;;;9.49;46.60;99429.06;6839644;28;20240;-83
2022/01/19 18:14:01;;;;;;;11.40;8.93;;;;;;;9.78;46.33;99438.00;6841987;28;20238;-86
2022/01/19 18:17:23;;;;;;;12.13;9.47;;;;;;;9.86;46.80;99481.00;6843466;28;20213;-83
2022/01/19 18:20:45;;;;;;;11.53;9.00;;;;;;;9.31;47.01;99424.00;6842461;28;20210;-86
2022/01/19 18:24:07;;;;;;;13.20;9.40;;;;;;;8.52;48.74;99392.38;6841227;28;20228;-85
2022/01/19 18:27:31;;;;;;;13.63;9.77;;;;;;;9.30;48.52;99478.00;6842570;28;20671;-85
2022/01/19 18:30:54;;;;;;;16.27;10.63;;;;;;;9.01;48.23;99415.22;6842427;28;20230;-86
2022/01/19 18:34:15;;;;;;;10.67;8.97;;;;;;;9.01;48.52;99472.50;6841579;28;20228;-85
2022/01/19 18:37:40;;;;;;;11.80;9.27;;;;;;;9.04;48.74;99488.31;6843008;28;20211;-85
2022/01/19 18:41:05;;;;;;;10.97;8.53;;;;;;;8.96;48.88;99464.13;6843914;28;20616;-83
2022/01/19 18:44:26;;;;;;;9.83;8.53;;;;;;;9.38;48.02;99486.84;6843632;28;20239;-85
2022/01/19 18:47:50;;;;;;;12.90;9.87;;;;;;;8.98;48.00;99414.53;6843198;28;20223;-85
2022/01/19 18:51:11;;;;;;;11.97;8.63;;;;;;;8.98;48.55;99472.03;6843289;28;20227;-85
2022/01/19 18:54:33;;;;;;;14.07;9.47;;;;;;;9.16;48.36;99474.25;6841505;28;20229;-85
2022/01/19 18:57:55;;;;;;;10.97;8.70;;;;;;;8.72;49.29;99440.09;6843408;28;20209;-84
2022/01/19 19:01:19;;;;;;;12.27;9.10;;;;;;;9.02;48.15;99421.25;6843848;28;20226;-86
2022/01/19 19:04:42;;;;;;;12.60;8.90;;;;;;;9.12;47.62;99415.59;6841741;28;20225;-84
2022/01/19 19:08:04;;;;;;;11.27;8.50;;;;;;;9.14;47.50;99418.94;6842198;28;20219;-85
2022/01/19 19:11:45;;;;;;;10.90;7.70;;;;;;;9.29;47.03;99419.84;6842113;28;20236;-85
2022/01/19 19:15:10;;;;;;;10.83;8.33;;;;;;;9.31;47.45;99417.78;6840942;28;20242;-85
2022/01/19 19:18:32;;;;;;;11.47;8.70;;;;;;;9.20;47.45;99427.13;6842111;28;20211;-85
2022/01/19 19:21:55;;;;;;;12.47;8.60;;;;;;;9.95;46.28;99469.13;6840555;28;20226;-83
2022/01/19 19:25:21;;;;;;;17.97;9.20;;;;;;;9.37;47.33;99438.59;6834988;28;20241;-83
2022/01/19 19:28:42;;;;;;;12.73;9.20;;;;;;;9.49;46.51;99426.34;6839947;28;20220;-83
2022/01/19 19:32:05;;;;;;;12.47;8.87;;;;;;;9.18;47.62;99445.31;6862297;28;20229;-82
2022/01/19 19:35:28;;;;;;;12.67;8.87;;;;;;;9.64;46.19;99435.31;6865002;28;20229;-83
2022/01/19 19:38:51;;;;;;;11.87;8.50;;;;;;;9.72;46.80;99495.31;6840231;28;20348;-84
2022/01/19 19:42:13;;;;;;;12.97;8.60;;;;;;;9.31;47.34;99437.47;6847592;28;20203;-84
2022/01/19 19:45:35;;;;;;;13.03;9.07;;;;;;;9.27;47.53;99429.94;6867656;28;20236;-82
2022/01/19 19:48:57;;;;;;;13.73;8.87;;;;;;;8.99;48.09;99426.97;6871593;28;20212;-82
2022/01/19 19:52:18;;;;;;;10.47;8.20;;;;;;;9.28;48.19;99496.19;6888078;28;20201;-83
2022/01/19 19:55:41;;;;;;;12.13;9.03;;;;;;;8.57;49.15;99430.28;6880590;28;20243;-84
2022/01/19 19:59:06;;;;;;;15.60;9.00;;;;;;;9.01;49.04;99501.28;6866346;28;20219;-83
2022/01/19 20:02:28;;;;;;;14.10;9.57;;;;;;;9.15;48.10;99434.09;6850327;28;20711;-83
2022/01/19 20:05:50;;;;;;;12.30;8.83;;;;;;;8.99;48.07;99418.91;6838975;28;20677;-84
2022/01/19 20:09:11;;;;;;;13.07;8.50;;;;;;;9.45;47.88;99493.19;6838937;28;20225;-83
2022/01/19 20:16:44;;;;;;;10.20;8.30;;;;;;;9.08;48.61;99492.28;6834165;28;20213;-83
2022/01/19 20:20:07;;;;;;;15.10;9.50;;;;;;;9.06;48.33;99427.09;6856393;28;20283;-82
2022/01/19 20:23:29;;;;;;;21.93;14.27;;;;;;;9.61;47.66;99487.66;6866834;28;20230;-84
2022/01/19 20:26:51;;;;;;;47.23;28.37;;;;;;;9.45;48.28;99498.56;6866305;28;20211;-83
2022/01/19 20:30:12;;;;;;;16.80;11.73;;;;;;;9.04;48.34;99434.50;6872463;28;20717;-83
2022/01/19 20:33:36;;;;;;;11.27;9.07;;;;;;;9.11;49.08;99487.38;6848226;28;20315;-83
2022/01/19 20:36:58;;;;;;;11.47;8.07;;;;;;;9.26;47.74;99471.31;6830370;28;20214;-83
2022/01/19 20:40:20;;;;;;;11.20;8.67;;;;;;;9.27;48.14;99463.06;6818587;29;20214;-82
2022/01/19 20:43:42;;;;;;;9.03;7.53;;;;;;;9.25;48.32;99485.78;6818205;29;20220;-82
2022/01/19 20:47:31;;;;;;;10.77;6.90;;;;;;;9.00;47.98;99462.78;6819882;29;20215;-82
2022/01/19 20:50:54;;;;;;;7.97;6.43;;;;;;;9.38;46.84;99465.31;6832819;29;20292;-81
2022/01/19 20:54:16;;;;;;;8.97;7.07;;;;;;;9.47;46.87;99469.63;6838482;29;20228;-85
2022/01/19 20:57:40;;;;;;;9.50;7.30;;;;;;;9.55;47.13;99479.47;6839529;29;20711;-82
2022/01/19 21:01:02;;;;;;;7.37;6.20;;;;;;;9.25;46.77;99442.72;6817594;29;20288;-84
2022/01/19 21:04:24;;;;;;;9.60;6.40;;;;;;;9.58;46.61;99471.84;6817253;29;20236;-84
2022/01/19 21:07:47;;;;;;;7.97;6.93;;;;;;;9.82;46.48;99485.13;6816933;29;20209;-84
2022/01/19 21:11:09;;;;;;;8.90;6.33;;;;;;;9.23;47.05;99409.81;6816840;29;20233;-82